Time;durP1;ratioP1;P1;durP2;ratioP2;P2;SDS_P1;SDS_P2;PMS_P1;PMS_P2;Temp;Humidity;BMP_temperature;BMP_pressure;BME280_temperature;BME280_humidity;BME280_pressure;Samples;Min_cycle;Max_cycle;Signal;HPM_P1;HPM_P2
2023/08/09 00:00:11;;;;;;;12.13;3.80;;;;;;;21.48;63.77;99103.53;4865516;29;20112;-88
2023/08/09 00:02:37;;;;;;;;;;;;;;;21.67;64.08;99130.25;4890941;29;20043;-91
2023/08/09 00:05:05;;;;;;;26.65;4.15;;;;;;;21.63;65.15;99125.88;4883934;29;19927;-96
2023/08/09 00:07:53;;;;;;;7.57;4.07;;;;;;;21.59;65.80;99125.84;4915050;29;20059;-91
2023/08/09 00:10:48;;;;;;;17.73;4.10;;;;;;;21.01;66.10;99044.13;4917145;29;20040;-88
2023/08/09 00:13:18;;;;;;;13.90;4.22;;;;;;;21.02;66.26;99067.16;4908005;29;20056;-96
2023/08/09 00:15:44;;;;;;;;;;;;;;;21.43;65.50;99131.75;4892907;29;20053;-89
2023/08/09 00:18:10;;;;;;;17.87;3.80;;;;;;;21.22;64.71;99106.56;4896088;29;19930;-93
2023/08/09 00:20:40;;;;;;;16.38;3.67;;;;;;;21.11;64.15;99079.53;4898753;29;20277;-89
2023/08/09 00:23:21;;;;;;;7.40;3.38;;;;;;;21.50;64.41;99142.09;4913555;29;20052;-88
2023/08/09 00:26:00;;;;;;;6.55;3.05;;;;;;;21.24;63.22;99093.88;4869429;29;20471;-96
2023/08/09 00:28:27;;;;;;;7.32;3.25;;;;;;;21.57;63.16;99137.34;4906063;29;20072;-94
2023/08/09 00:30:54;;;;;;;10.48;3.47;;;;;;;21.39;62.80;99097.56;4892990;29;20078;-89
2023/08/09 00:33:20;;;;;;;10.40;3.65;;;;;;;21.46;62.63;99110.72;4893440;29;20033;-96
2023/08/09 00:35:46;;;;;;;8.80;3.30;;;;;;;21.37;62.86;99080.47;4906057;29;20045;-89
2023/08/09 00:38:12;;;;;;;9.40;3.90;;;;;;;21.66;62.87;99134.22;4894934;29;20375;-91
2023/08/09 00:40:38;;;;;;;8.88;3.67;;;;;;;21.40;62.99;99090.81;4893752;29;20040;-88
2023/08/09 00:43:07;;;;;;;10.65;3.70;;;;;;;21.63;63.67;99117.53;4913465;29;20052;-96
2023/08/09 00:45:33;;;;;;;21.35;3.92;;;;;;;21.20;62.83;99061.72;4876912;29;20136;-91
2023/08/09 00:48:01;;;;;;;10.23;3.35;;;;;;;21.38;63.80;99086.81;4908984;29;20072;-89
2023/08/09 00:50:27;;;;;;;5.95;3.22;;;;;;;21.44;62.07;99096.38;4888106;29;20071;-88
2023/08/09 00:52:56;;;;;;;13.27;3.50;;;;;;;21.31;61.71;99074.44;4900698;29;20045;-93
2023/08/09 00:55:25;;;;;;;8.45;3.20;;;;;;;21.46;61.40;99097.59;4881276;29;20053;-91
2023/08/09 00:57:53;;;;;;;4.50;2.63;;;;;;;21.74;61.18;99141.38;4852407;29;20208;-95
2023/08/09 01:00:19;;;;;;;7.07;3.25;;;;;;;21.59;61.33;99103.59;4875152;29;20057;-94
2023/08/09 01:02:46;;;;;;;4.07;2.83;;;;;;;21.50;61.24;99092.84;4815718;29;20038;-88
2023/08/09 01:05:12;;;;;;;10.82;3.10;;;;;;;21.47;60.76;99081.69;4885554;29;20091;-90
2023/08/09 01:08:03;;;;;;;9.68;3.03;;;;;;;21.85;60.75;99133.06;4904173;29;20052;-96
2023/08/09 01:10:38;;;;;;;9.02;3.30;;;;;;;21.55;60.79;99081.31;4870583;29;20052;-95
2023/08/09 01:13:07;;;;;;;6.15;2.95;;;;;;;21.51;60.64;99079.72;4889479;29;20093;-93
2023/08/09 01:15:35;;;;;;;4.90;2.88;;;;;;;21.43;60.69;99062.22;4900420;29;20096;-90
2023/08/09 01:18:02;;;;;;;7.68;3.25;;;;;;;21.90;61.66;99129.91;4886355;29;20056;-88
2023/08/09 01:20:30;;;;;;;5.80;3.30;;;;;;;21.73;60.66;99113.97;4888594;29;20048;-94
2023/08/09 01:23:04;;;;;;;15.18;3.60;;;;;;;21.81;61.07;99133.06;4864598;29;20063;-91
2023/08/09 01:25:31;;;;;;;5.60;2.95;;;;;;;21.77;61.50;99118.34;4863561;29;20049;-89
2023/08/09 01:27:59;;;;;;;9.07;3.30;;;;;;;21.62;61.66;99100.00;4874667;29;20531;-88
2023/08/09 01:30:25;;;;;;;7.50;3.22;;;;;;;21.41;61.41;99063.78;4880410;29;20392;-89
2023/08/09 01:32:53;;;;;;;7.35;3.13;;;;;;;21.61;60.87;99105.97;4887165;29;20057;-88
2023/08/09 01:35:20;;;;;;;9.00;2.97;;;;;;;21.81;61.37;99146.97;4877916;29;20045;-88
2023/08/09 01:38:21;;;;;;;5.93;3.40;;;;;;;21.46;61.91;99083.69;4893329;29;20052;-89
2023/08/09 01:40:48;;;;;;;18.00;3.45;;;;;;;21.56;62.13;99104.38;4855278;29;20418;-87
2023/08/09 01:43:15;;;;;;;7.57;3.45;;;;;;;21.65;61.38;99106.78;4862397;29;20037;-89
2023/08/09 01:45:41;;;;;;;6.40;3.40;;;;;;;21.33;61.40;99072.09;4881433;29;20033;-88
2023/08/09 01:48:07;;;;;;;6.17;3.10;;;;;;;21.44;61.68;99079.69;4881440;29;20602;-88
2023/08/09 01:50:34;;;;;;;8.40;3.13;;;;;;;21.22;62.35;99054.56;4884368;29;20131;-87
2023/08/09 01:53:00;;;;;;;18.23;3.72;;;;;;;21.35;62.88;99074.50;4869189;29;20076;-88
2023/08/09 01:55:27;;;;;;;10.27;3.20;;;;;;;21.38;62.50;99087.63;4901232;29;20037;-88
2023/08/09 01:57:53;;;;;;;7.28;3.75;;;;;;;21.65;63.40;99140.16;4869452;29;20055;-87
2023/08/09 02:00:20;;;;;;;17.70;4.25;;;;;;;21.38;63.45;99097.94;4885873;29;20048;-89
2023/08/09 02:02:47;;;;;;;;;;;;;;;21.55;62.55;99136.16;4885401;29;20059;-87
2023/08/09 02:05:13;;;;;;;7.57;2.97;;;;;;;21.31;63.37;99105.03;4884249;29;19923;-89
2023/08/09 02:07:39;;;;;;;7.63;3.30;;;;;;;21.44;63.41;99125.00;4885679;29;20065;-88
2023/08/09 02:10:08;;;;;;;7.88;3.65;;;;;;;21.40;63.98;99140.06;4889542;29;20071;-89
2023/08/09 02:12:35;;;;;;;8.57;3.00;;;;;;;21.09;63.85;99103.31;4901710;29;20057;-89
2023/08/09 02:15:01;;;;;;;9.13;3.45;;;;;;;21.01;63.89;99096.94;4913979;29;20043;-95
2023/08/09 02:17:27;;;;;;;10.00;3.50;;;;;;;20.76;64.34;99076.53;4906727;29;20064;-95
2023/08/09 02:20:13;;;;;;;11.02;3.40;;;;;;;20.93;64.70;99089.75;4881939;29;20700;-95
2023/08/09 02:22:40;;;;;;;10.90;3.22;;;;;;;20.81;64.75;99082.53;4914196;29;20047;-87
2023/08/09 02:25:09;;;;;;;7.43;3.25;;;;;;;21.24;64.97;99154.25;4915510;29;20051;-89
2023/08/09 02:27:35;;;;;;;12.32;3.63;;;;;;;21.02;64.78;99117.97;4890186;29;20059;-88
2023/08/09 02:30:03;;;;;;;10.68;3.50;;;;;;;21.23;64.80;99138.78;4884031;29;20060;-90
2023/08/09 02:32:32;;;;;;;9.30;3.47;;;;;;;21.14;65.10;99125.22;4898023;29;20060;-90
2023/08/09 02:34:59;;;;;;;11.88;3.33;;;;;;;21.20;64.78;99137.56;4870243;29;20048;-91
2023/08/09 02:37:24;;;;;;;;;;;;;;;21.28;64.93;99153.06;4905763;29;20072;-89
2023/08/09 02:39:50;;;;;;;8.90;3.60;;;;;;;21.03;64.67;99118.81;4885795;29;19923;-90
2023/08/09 02:42:17;;;;;;;6.00;3.33;;;;;;;21.07;65.40;99127.94;4890032;29;20600;-89
2023/08/09 02:44:43;;;;;;;12.45;3.75;;;;;;;20.91;65.60;99103.25;4903175;29;20458;-95
2023/08/09 02:47:09;;;;;;;10.07;3.35;;;;;;;21.14;66.23;99135.53;4887035;29;20045;-89
2023/08/09 02:49:35;;;;;;;8.85;3.88;;;;;;;21.02;65.78;99120.75;4885543;29;20051;-89
2023/08/09 02:52:01;;;;;;;12.80;3.90;;;;;;;21.09;65.90;99131.94;4901402;29;20036;-90
2023/08/09 02:54:27;;;;;;;6.00;3.47;;;;;;;20.96;64.99;99122.34;4913121;29;20491;-90
2023/08/09 02:56:53;;;;;;;8.73;3.22;;;;;;;20.93;65.28;99106.44;4884156;29;20301;-90
2023/08/09 02:59:19;;;;;;;11.27;3.33;;;;;;;21.11;65.02;99124.00;4899005;29;20048;-89
2023/08/09 03:01:46;;;;;;;6.80;3.20;;;;;;;20.97;64.75;99098.13;4915036;29;20043;-92
2023/08/09 03:04:13;;;;;;;12.93;3.75;;;;;;;20.93;65.91;99094.53;4919466;29;20040;-94
2023/08/09 03:06:39;;;;;;;7.18;3.63;;;;;;;20.96;65.76;99100.09;4903984;29;20043;-90
2023/08/09 03:09:06;;;;;;;11.35;3.58;;;;;;;21.08;65.32;99140.66;4912254;29;20487;-89
2023/08/09 03:11:32;;;;;;;11.85;3.63;;;;;;;21.01;64.88;99112.81;4896075;29;20483;-89
2023/08/09 03:13:58;;;;;;;11.50;3.42;;;;;;;21.06;65.16;99118.03;4904656;29;20044;-89
2023/08/09 03:16:24;;;;;;;12.30;3.80;;;;;;;21.04;65.67;99095.38;4886781;29;20135;-94
2023/08/09 03:18:50;;;;;;;13.50;4.10;;;;;;;21.12;64.84;99108.13;4889973;29;20312;-89
2023/08/09 03:21:17;;;;;;;10.73;4.05;;;;;;;20.96;65.74;99089.00;4862186;29;20418;-89
2023/08/09 03:23:44;;;;;;;11.85;3.90;;;;;;;21.27;65.45;99129.25;4892920;29;20099;-89
2023/08/09 03:26:10;;;;;;;16.70;4.30;;;;;;;21.48;65.43;99150.81;4903838;29;20048;-89
2023/08/09 03:28:36;;;;;;;12.38;3.78;;;;;;;21.24;64.78;99104.22;4904562;29;20051;-89
2023/08/09 03:31:05;;;;;;;14.82;3.95;;;;;;;21.51;64.99;99138.13;4922671;29;20055;-93
2023/08/09 03:33:36;;;;;;;6.88;3.63;;;;;;;21.66;64.69;99153.69;4901133;29;20477;-90
2023/08/09 03:36:04;;;;;;;22.05;4.18;;;;;;;21.30;65.02;99105.44;4888858;29;20526;-90
2023/08/09 03:38:30;;;;;;;;;;;;;;;21.68;64.77;99150.50;4905960;29;20561;-88
2023/08/09 03:40:56;;;;;;;12.18;3.80;;;;;;;21.31;64.36;99110.59;4883242;29;19978;-90
2023/08/09 03:43:23;;;;;;;7.78;3.60;;;;;;;21.30;64.36;99119.34;4886944;29;20135;-90
2023/08/09 03:45:49;;;;;;;8.32;4.15;;;;;;;21.27;65.47;99107.00;4905818;29;20058;-93
2023/08/09 03:48:16;;;;;;;12.27;4.38;;;;;;;21.37;65.05;99132.50;4904065;29;20044;-88
2023/08/09 03:50:42;;;;;;;9.38;3.90;;;;;;;21.39;64.66;99133.72;4897886;29;20064;-89
2023/08/09 03:53:08;;;;;;;10.05;4.25;;;;;;;21.50;64.76;99148.47;4898713;29;20052;-89
2023/08/09 03:55:37;;;;;;;14.43;4.07;;;;;;;21.44;64.42;99132.53;4872452;29;20447;-89
2023/08/09 03:58:03;;;;;;;11.03;3.70;;;;;;;21.58;64.61;99140.94;4903586;29;20095;-93
2023/08/09 04:00:29;;;;;;;12.82;3.90;;;;;;;21.29;64.07;99073.25;4907471;29;20305;-90
2023/08/09 04:02:56;;;;;;;7.07;4.10;;;;;;;21.67;63.52;99115.53;4907202;29;20119;-89
2023/08/09 04:05:23;;;;;;;14.73;4.18;;;;;;;21.67;63.68;99130.25;4913278;29;20052;-89
2023/08/09 04:07:49;;;;;;;;;;;;;;;21.79;63.54;99146.59;4875914;29;20126;-88
2023/08/09 04:10:16;;;;;;;7.13;3.53;;;;;;;21.49;63.43;99096.81;4926686;29;19923;-89
2023/08/09 04:12:45;;;;;;;8.65;3.92;;;;;;;21.49;63.77;99104.34;4929728;29;20068;-89
2023/08/09 04:15:11;;;;;;;12.18;4.15;;;;;;;21.76;63.67;99152.94;4926326;29;20024;-88
2023/08/09 04:17:38;;;;;;;7.90;4.18;;;;;;;21.38;63.46;99086.81;4890519;29;20071;-88
2023/08/09 04:20:11;;;;;;;9.98;3.95;;;;;;;21.58;63.34;99113.13;4889141;29;20051;-93
2023/08/09 04:22:38;;;;;;;9.77;3.97;;;;;;;21.48;63.32;99105.53;4920751;29;20040;-88
2023/08/09 04:25:06;;;;;;;12.18;4.10;;;;;;;21.69;63.08;99127.88;4901809;29;20041;-88
2023/08/09 04:27:41;;;;;;;13.23;4.15;;;;;;;21.47;63.91;99112.28;4908637;29;20040;-89
2023/08/09 04:30:10;;;;;;;12.23;4.28;;;;;;;21.34;63.46;99098.72;4902166;29;20460;-91
2023/08/09 04:32:38;;;;;;;10.23;3.67;;;;;;;21.69;63.72;99149.31;4914365;29;20039;-92
2023/08/09 04:35:11;;;;;;;12.40;3.67;;;;;;;21.56;64.19;99121.06;4904806;29;20048;-87
2023/08/09 04:37:37;;;;;;;13.20;4.32;;;;;;;21.80;63.89;99134.25;4891886;29;20044;-88
2023/08/09 04:40:10;;;;;;;9.33;3.83;;;;;;;21.70;62.85;99114.75;4916665;29;20071;-91
2023/08/09 04:42:41;;;;;;;12.52;4.25;;;;;;;21.54;63.29;99123.44;4888337;29;20059;-89
2023/08/09 04:45:08;;;;;;;9.02;4.13;;;;;;;21.75;63.49;99148.53;4887881;29;20048;-87
2023/08/09 04:47:35;;;;;;;7.22;3.50;;;;;;;22.35;62.85;99165.81;4882379;29;20059;-85
2023/08/09 04:50:03;;;;;;;10.50;3.90;;;;;;;22.66;61.46;99134.41;4904484;29;20048;-91
2023/08/09 04:52:30;;;;;;;18.63;3.85;;;;;;;23.05;60.58;99152.31;4922024;29;20067;-85
2023/08/09 04:54:56;;;;;;;11.82;4.28;;;;;;;23.30;58.41;99157.81;4905375;29;20048;-85
2023/08/09 04:57:23;;;;;;;12.95;4.10;;;;;;;23.27;58.61;99148.25;4878409;29;20517;-85
2023/08/09 04:59:49;;;;;;;8.55;4.35;;;;;;;23.53;58.12;99155.34;4905946;29;20689;-85
2023/08/09 05:02:15;;;;;;;16.80;4.55;;;;;;;23.57;57.90;99149.75;4910540;29;20171;-86
2023/08/09 05:04:41;;;;;;;10.52;4.13;;;;;;;23.76;57.52;99148.50;4878644;29;20048;-85
2023/08/09 05:07:07;;;;;;;11.98;4.53;;;;;;;23.99;56.70;99140.41;4903256;29;20518;-85
2023/08/09 05:09:34;;;;;;;11.65;4.20;;;;;;;24.02;56.77;99153.56;4905336;29;20053;-90
2023/08/09 05:11:59;;;;;;;;;;;;;;;24.07;56.54;99172.69;4924674;29;20055;-86
2023/08/09 05:14:26;;;;;;;48.63;5.95;;;;;;;23.94;56.59;99176.34;4909549;29;19923;-86
2023/08/09 05:16:52;;;;;;;8.30;4.53;;;;;;;23.66;57.34;99164.88;4904484;29;20104;-85
2023/08/09 05:19:19;;;;;;;14.52;4.45;;;;;;;23.53;58.54;99151.78;4885801;29;20049;-89
2023/08/09 05:21:45;;;;;;;13.93;5.68;;;;;;;23.33;57.87;99157.03;4887966;29;20068;-86
2023/08/09 05:24:12;;;;;;;18.98;5.22;;;;;;;23.29;59.71;99167.41;4890003;29;20418;-83
2023/08/09 05:26:38;;;;;;;11.57;4.80;;;;;;;23.14;58.43;99156.25;4912289;29;20056;-85
2023/08/09 05:29:04;;;;;;;7.85;4.97;;;;;;;23.29;59.18;99172.97;4911748;29;20044;-86
2023/08/09 05:31:30;;;;;;;6.75;4.13;;;;;;;23.42;59.32;99183.28;4922105;29;20054;-92
2023/08/09 05:33:56;;;;;;;15.32;5.43;;;;;;;23.45;58.59;99181.69;4896968;29;20066;-91
2023/08/09 05:36:23;;;;;;;9.40;4.93;;;;;;;23.40;58.13;99176.53;4912542;29;20055;-90
2023/08/09 05:38:49;;;;;;;15.50;4.70;;;;;;;23.45;58.06;99199.22;4914164;29;21068;-91
2023/08/09 05:41:16;;;;;;;11.97;4.53;;;;;;;23.31;58.86;99187.28;4915777;29;20511;-89
2023/08/09 05:43:43;;;;;;;10.75;4.70;;;;;;;23.30;59.27;99199.66;4909459;29;20296;-85
2023/08/09 05:46:09;;;;;;;11.57;5.30;;;;;;;23.08;59.59;99163.47;4887710;29;20044;-86
2023/08/09 05:48:35;;;;;;;23.27;5.07;;;;;;;23.13;59.38;99176.97;4909741;29;20464;-84
2023/08/09 05:51:01;;;;;;;28.65;5.25;;;;;;;23.10;59.54;99163.03;4914823;29;20048;-86
2023/08/09 05:53:27;;;;;;;18.00;5.17;;;;;;;23.23;59.85;99180.16;4906935;29;20050;-85
2023/08/09 05:55:53;;;;;;;21.05;5.55;;;;;;;23.38;59.87;99182.50;4919251;29;20321;-85
2023/08/09 05:58:20;;;;;;;13.25;5.63;;;;;;;23.38;58.90;99170.56;4906078;29;20048;-88
2023/08/09 06:00:48;;;;;;;14.75;6.18;;;;;;;23.68;58.34;99193.22;4908389;29;20055;-84
2023/08/09 06:03:15;;;;;;;23.63;5.93;;;;;;;23.73;58.67;99203.16;4905611;29;20052;-88
2023/08/09 06:05:41;;;;;;;52.97;6.47;;;;;;;23.70;58.50;99166.88;4901470;29;20044;-84
2023/08/09 06:08:07;;;;;;;24.88;5.28;;;;;;;23.88;58.77;99171.19;4896370;29;20115;-89
2023/08/09 06:10:34;;;;;;;40.40;11.63;;;;;;;24.03;58.07;99185.06;4913917;29;20059;-93
2023/08/09 06:13:00;;;;;;;25.58;6.25;;;;;;;23.88;57.20;99184.34;4887074;29;20109;-90
2023/08/09 06:15:26;;;;;;;25.40;5.27;;;;;;;23.77;57.99;99176.00;4893685;29;20052;-87
2023/08/09 06:17:52;;;;;;;15.45;5.05;;;;;;;23.71;57.82;99183.25;4887743;29;20325;-86
2023/08/09 06:20:21;;;;;;;13.93;5.47;;;;;;;23.76;58.45;99193.97;4888111;29;20051;-89
2023/08/09 06:22:49;;;;;;;25.80;5.82;;;;;;;24.01;58.19;99212.63;4893878;29;20044;-87
2023/08/09 06:25:16;;;;;;;18.88;5.43;;;;;;;24.22;57.44;99192.16;4904916;29;20052;-86
2023/08/09 06:27:42;;;;;;;16.02;5.38;;;;;;;24.11;56.63;99187.41;4897261;29;20499;-91
2023/08/09 06:30:08;;;;;;;13.80;6.00;;;;;;;23.99;56.87;99170.34;4873522;29;20036;-86
2023/08/09 06:32:34;;;;;;;16.13;5.38;;;;;;;24.14;57.63;99194.19;4892941;29;20044;-85
2023/08/09 06:35:00;;;;;;;23.73;6.50;;;;;;;24.19;56.91;99192.97;4903045;29;20052;-90
2023/08/09 06:37:26;;;;;;;16.05;5.90;;;;;;;24.22;56.38;99194.94;4895460;29;20044;-86
2023/08/09 06:39:52;;;;;;;24.40;6.57;;;;;;;24.20;56.78;99212.09;4894842;29;20041;-90
2023/08/09 06:42:18;;;;;;;17.02;5.85;;;;;;;23.88;57.54;99167.59;4873225;29;20561;-90
2023/08/09 06:44:48;;;;;;;19.48;7.07;;;;;;;24.08;56.66;99202.19;4895660;29;20088;-87
2023/08/09 06:47:16;;;;;;;12.02;6.40;;;;;;;24.20;57.89;99216.88;4893392;29;20047;-91
2023/08/09 06:49:42;;;;;;;21.33;7.22;;;;;;;24.14;58.05;99208.16;4887812;29;20044;-86
2023/08/09 06:52:08;;;;;;;18.50;7.38;;;;;;;24.05;58.26;99199.44;4890848;29;20041;-86
2023/08/09 06:54:33;;;;;;;13.60;7.43;;;;;;;24.08;58.09;99207.78;4905837;29;20046;-87
2023/08/09 06:56:59;;;;;;;18.45;8.57;;;;;;;24.05;59.41;99191.84;4888552;29;20598;-86
2023/08/09 06:59:26;;;;;;;49.90;9.40;;;;;;;24.22;58.56;99208.91;4894002;29;20516;-87
2023/08/09 07:01:53;;;;;;;34.85;9.10;;;;;;;24.25;59.00;99214.47;4893644;29;20404;-89
2023/08/09 07:04:19;;;;;;;46.72;10.68;;;;;;;24.05;58.66;99207.81;4898630;29;20099;-88
2023/08/09 07:06:45;;;;;;;28.95;9.27;;;;;;;24.01;59.23;99196.66;4905539;29;20063;-87
2023/08/09 07:09:14;;;;;;;25.23;9.82;;;;;;;24.31;59.34;99231.63;4902717;29;20048;-86
2023/08/09 07:11:40;;;;;;;27.42;9.13;;;;;;;24.23;59.41;99211.28;4914276;29;20053;-85
2023/08/09 07:14:09;;;;;;;29.50;9.85;;;;;;;24.40;58.74;99209.59;4903782;29;20685;-87
2023/08/09 07:16:35;;;;;;;37.45;10.30;;;;;;;24.59;58.73;99225.06;4916899;29;20063;-86
2023/08/09 07:19:02;;;;;;;23.63;9.80;;;;;;;24.39;58.08;99192.03;4888352;29;20135;-86
2023/08/09 07:21:28;;;;;;;29.75;9.32;;;;;;;24.73;58.11;99219.34;4900206;29;20036;-87
2023/08/09 07:23:55;;;;;;;19.88;10.00;;;;;;;24.36;57.73;99167.69;4902229;29;20048;-87
2023/08/09 07:26:22;;;;;;;26.42;9.35;;;;;;;24.29;57.91;99164.97;4915689;29;20047;-87
2023/08/09 07:28:48;;;;;;;35.30;10.60;;;;;;;24.05;57.96;99155.53;4869961;29;20035;-88
2023/08/09 07:31:22;;;;;;;25.65;10.48;;;;;;;24.48;59.13;99196.41;4918296;29;20060;-89
2023/08/09 07:33:49;;;;;;;20.65;9.68;;;;;;;24.60;58.80;99202.31;4915440;29;20047;-88
2023/08/09 07:36:16;;;;;;;30.55;10.27;;;;;;;24.61;58.30;99201.09;4897876;29;20122;-86
2023/08/09 07:38:43;;;;;;;33.30;11.00;;;;;;;24.85;59.15;99212.50;4903089;29;20047;-87
2023/08/09 07:41:10;;;;;;;29.95;9.80;;;;;;;24.87;58.51;99226.88;4881947;29;20506;-87
2023/08/09 07:43:37;;;;;;;33.72;10.68;;;;;;;24.82;59.10;99174.97;4897975;29;20040;-91
2023/08/09 07:46:05;;;;;;;37.75;9.57;;;;;;;24.98;58.94;99177.22;4904255;29;20032;-87
2023/08/09 07:48:33;;;;;;;34.85;10.55;;;;;;;25.09;57.00;99197.47;4884160;29;20426;-85
2023/08/09 07:51:03;;;;;;;34.83;10.57;;;;;;;25.22;58.41;99208.19;4907057;29;20036;-89
2023/08/09 07:53:29;;;;;;;24.65;11.07;;;;;;;24.87;57.15;99184.09;4913718;29;20578;-87
2023/08/09 07:55:55;;;;;;;33.00;11.50;;;;;;;24.69;58.40;99168.28;4894062;29;20033;-90
2023/08/09 07:58:26;;;;;;;33.15;9.95;;;;;;;24.63;59.33;99171.94;4859767;29;20048;-87
2023/08/09 08:00:52;;;;;;;37.45;11.10;;;;;;;24.77;59.56;99202.59;4901740;29;20459;-87
2023/08/09 08:03:18;;;;;;;22.15;10.07;;;;;;;24.71;58.29;99198.63;4883342;29;20467;-86
2023/08/09 08:05:45;;;;;;;17.83;9.77;;;;;;;24.67;57.43;99193.06;4910684;29;20036;-89
2023/08/09 08:08:11;;;;;;;21.60;10.40;;;;;;;24.64;58.52;99193.09;4907747;29;20052;-89
2023/08/09 08:10:37;;;;;;;23.20;9.32;;;;;;;24.71;58.84;99173.47;4906884;29;20047;-88
2023/08/09 08:13:05;;;;;;;40.20;10.30;;;;;;;24.61;57.62;99167.56;4881992;29;20060;-88
2023/08/09 08:15:31;;;;;;;17.42;8.85;;;;;;;24.82;58.47;99193.75;4909043;29;20040;-88
2023/08/09 08:17:57;;;;;;;25.40;11.10;;;;;;;24.61;57.06;99156.38;4900132;29;20040;-87
2023/08/09 08:20:24;;;;;;;30.55;10.27;;;;;;;24.81;57.38;99175.38;4897932;29;20502;-88
2023/08/09 08:22:51;;;;;;;36.17;11.18;;;;;;;24.95;56.60;99208.81;4889455;29;20052;-86
2023/08/09 08:25:20;;;;;;;26.20;9.63;;;;;;;25.05;56.99;99216.31;4902963;29;20070;-86
2023/08/09 08:27:48;;;;;;;24.35;9.68;;;;;;;24.85;56.02;99185.31;4891291;29;20107;-87
2023/08/09 08:30:19;;;;;;;17.45;10.95;;;;;;;24.91;55.83;99198.88;4881673;29;20072;-86
2023/08/09 08:32:46;;;;;;;38.38;10.80;;;;;;;24.93;56.51;99194.44;4896628;29;20072;-88
2023/08/09 08:35:19;;;;;;;55.28;17.45;;;;;;;25.14;56.76;99224.25;4907057;29;20064;-88
2023/08/09 08:37:48;;;;;;;24.58;9.98;;;;;;;25.09;56.47;99214.25;4910536;29;20037;-87
2023/08/09 08:40:20;;;;;;;20.90;8.88;;;;;;;25.10;56.29;99192.69;4909433;29;20044;-87
2023/08/09 08:42:48;;;;;;;21.58;8.65;;;;;;;25.43;57.33;99235.16;4895786;29;20032;-88
2023/08/09 08:45:15;;;;;;;31.58;8.55;;;;;;;25.50;54.44;99255.47;4906875;29;20044;-86
2023/08/09 08:47:44;;;;;;;25.77;8.52;;;;;;;25.55;56.11;99245.81;4906010;29;20396;-86
2023/08/09 08:50:15;;;;;;;28.20;9.40;;;;;;;25.58;55.04;99250.59;4874878;29;20072;-86
2023/08/09 08:52:47;;;;;;;20.23;8.93;;;;;;;25.40;55.71;99250.00;4896412;29;20047;-86
2023/08/09 08:55:14;;;;;;;28.58;9.10;;;;;;;25.19;56.34;99234.19;4867241;29;20043;-90
2023/08/09 08:57:42;;;;;;;38.08;10.45;;;;;;;25.29;56.44;99250.09;4883190;29;20131;-89
2023/08/09 09:00:20;;;;;;;28.17;12.75;;;;;;;24.88;56.86;99208.88;4908765;29;20073;-88
2023/08/09 09:02:48;;;;;;;30.52;12.02;;;;;;;25.05;56.32;99251.88;4926698;29;20036;-86
2023/08/09 09:05:16;;;;;;;38.88;11.63;;;;;;;25.19;58.24;99279.75;4907406;29;20230;-84
2023/08/09 09:07:45;;;;;;;18.55;9.00;;;;;;;25.10;56.64;99265.44;4915352;29;20127;-89
2023/08/09 09:10:13;;;;;;;36.17;9.10;;;;;;;25.18;58.54;99280.16;4906756;29;20152;-86
2023/08/09 09:12:41;;;;;;;26.65;8.85;;;;;;;25.03;58.19;99251.47;4901285;29;20049;-83
2023/08/09 09:15:09;;;;;;;32.90;10.40;;;;;;;25.02;55.47;99281.44;4903182;29;20052;-85
2023/08/09 09:17:53;;;;;;;33.13;10.35;;;;;;;24.76;55.98;99238.09;4910037;29;20040;-88
2023/08/09 09:20:23;;;;;;;33.28;8.50;;;;;;;24.89;57.53;99246.00;4924673;29;20036;-92
2023/08/09 09:22:51;;;;;;;45.55;10.02;;;;;;;24.79;57.96;99209.34;4917260;29;20032;-91
2023/08/09 09:25:19;;;;;;;26.20;8.73;;;;;;;25.10;56.51;99265.44;4899225;29;20052;-90
2023/08/09 09:27:50;;;;;;;33.63;10.63;;;;;;;24.97;56.28;99250.34;4906244;29;20043;-91
2023/08/09 09:30:37;;;;;;;40.72;11.43;;;;;;;24.92;57.14;99243.19;4918646;29;20045;-90
2023/08/09 09:33:03;;;;;;;34.42;10.52;;;;;;;24.74;57.76;99228.56;4906656;29;20139;-91
2023/08/09 09:35:32;;;;;;;32.25;10.25;;;;;;;25.12;57.98;99282.59;4918029;29;20056;-88
2023/08/09 09:38:05;;;;;;;33.13;11.20;;;;;;;24.95;57.55;99261.94;4892928;29;20050;-89
2023/08/09 09:40:36;;;;;;;41.85;11.45;;;;;;;24.96;57.74;99260.72;4880060;29;20057;-91
2023/08/09 09:43:05;;;;;;;37.10;12.43;;;;;;;24.93;58.31;99260.75;4922008;29;20040;-90
2023/08/09 09:45:34;;;;;;;30.75;10.50;;;;;;;24.95;57.58;99258.34;4902262;29;20834;-88
2023/08/09 09:48:04;;;;;;;26.67;9.93;;;;;;;25.12;58.94;99287.41;4892789;29;20045;-89
2023/08/09 09:50:33;;;;;;;52.03;9.90;;;;;;;25.02;58.42;99255.50;4912478;29;20051;-90
2023/08/09 09:53:04;;;;;;;32.15;9.48;;;;;;;25.12;55.64;99268.63;4898058;29;20119;-89
2023/08/09 09:55:42;;;;;;;30.38;8.32;;;;;;;25.36;54.55;99294.00;4915427;29;20027;-86
2023/08/09 09:58:12;;;;;;;31.17;8.43;;;;;;;25.29;54.01;99250.88;4914745;29;20044;-88
2023/08/09 10:00:53;;;;;;;23.38;8.52;;;;;;;25.63;52.71;99288.53;4915648;29;20028;-93
2023/08/09 10:03:26;;;;;;;28.05;7.55;;;;;;;25.62;51.59;99264.56;4892748;29;20049;-91
2023/08/09 10:05:59;;;;;;;31.63;7.88;;;;;;;25.27;51.33;99216.16;4863262;29;20040;-92
2023/08/09 10:08:37;;;;;;;19.10;7.20;;;;;;;25.64;51.65;99264.94;4913443;29;20083;-93
2023/08/09 10:11:11;;;;;;;27.17;8.13;;;;;;;25.80;52.20;99272.78;4898294;29;20422;-93
2023/08/09 10:13:47;;;;;;;15.60;7.57;;;;;;;25.61;49.46;99226.59;4897168;29;20155;-93
2023/08/09 10:16:32;;;;;;;21.88;7.80;;;;;;;26.22;49.81;99291.09;4915030;29;20116;-92
2023/08/09 10:19:11;;;;;;;27.83;7.43;;;;;;;26.00;50.11;99248.56;4923194;23;20060;-94
2023/08/09 10:21:48;;;;;;;21.83;7.93;;;;;;;26.00;50.45;99252.16;4901894;29;20072;-92
2023/08/09 10:24:18;;;;;;;16.42;7.90;;;;;;;25.93;50.10;99206.63;4856939;29;20048;-91
2023/08/09 10:27:10;;;;;;;26.63;7.57;;;;;;;25.96;49.44;99233.78;4878494;29;20498;-94
2023/08/09 10:29:41;;;;;;;21.58;6.90;;;;;;;26.40;48.86;99293.66;4887573;29;20510;-96
2023/08/09 10:32:10;;;;;;;17.17;7.47;;;;;;;26.22;49.95;99293.88;4868484;29;20053;-92
2023/08/09 10:37:43;;;;;;;32.20;7.43;;;;;;;26.21;49.86;99276.28;4951576;23;20139;-91
2023/08/09 10:40:35;;;;;;;21.20;7.35;;;;;;;25.95;51.30;99241.38;4912317;29;20143;-94
2023/08/09 10:43:18;;;;;;;21.50;7.30;;;;;;;25.94;50.90;99230.63;4933452;29;20048;-92
2023/08/09 10:46:13;;;;;;;34.83;7.28;;;;;;;25.68;50.52;99227.28;4927866;29;20103;-92
2023/08/09 10:49:01;;;;;;;35.97;7.75;;;;;;;25.81;51.55;99266.78;4917113;29;20056;-89
2023/08/09 10:51:28;;;;;;;30.08;7.50;;;;;;;25.68;51.90;99257.28;4908357;29;20051;-91
2023/08/09 10:54:25;;;;;;;15.70;6.15;;;;;;;25.75;52.23;99276.81;4909007;29;20047;-93
2023/08/09 10:57:40;;;;;;;17.88;7.00;;;;;;;25.45;52.52;99230.72;4912501;29;20043;-93
2023/08/09 11:00:12;;;;;;;30.05;7.50;;;;;;;25.48;52.74;99229.13;4890021;29;20108;-94
2023/08/09 11:02:48;;;;;;;17.05;6.75;;;;;;;25.57;53.42;99254.63;4916033;29;20044;-89
2023/08/09 11:05:17;;;;;;;33.35;7.40;;;;;;;25.37;53.03;99262.81;4906091;29;20032;-89
2023/08/09 11:07:59;;;;;;;14.80;6.80;;;;;;;25.27;51.76;99260.91;4925431;29;20120;-91
2023/08/09 11:10:29;;;;;;;17.20;6.63;;;;;;;25.29;52.37;99267.66;4920221;29;20055;-93
2023/08/09 11:12:57;;;;;;;13.38;7.20;;;;;;;25.41;53.80;99291.56;4898755;29;20044;-93
2023/08/09 11:15:50;;;;;;;11.15;6.40;;;;;;;25.18;53.34;99260.59;4919450;29;20044;-90
2023/08/09 11:18:16;;;;;;;62.95;18.50;;;;;;;25.14;53.33;99254.25;4910734;29;20063;-89
2023/08/09 11:20:46;;;;;;;43.05;10.07;;;;;;;25.30;54.37;99252.47;4909256;29;20059;-91
2023/08/09 11:23:13;;;;;;;28.33;6.53;;;;;;;25.39;54.34;99237.97;4893978;29;20049;-91
2023/08/09 11:25:39;;;;;;;;;;;;;;;25.81;53.14;99288.38;4898982;29;20044;-93
2023/08/09 11:28:13;;;;;;;26.98;6.88;;;;;;;25.78;53.71;99256.38;4905310;29;19947;-92
2023/08/09 11:30:41;;;;;;;30.85;7.32;;;;;;;26.13;52.89;99274.81;4898061;29;20050;-93
2023/08/09 11:33:11;;;;;;;30.15;7.88;;;;;;;26.12;52.47;99242.38;4900509;23;20440;-93
2023/08/09 11:35:44;;;;;;;27.65;7.68;;;;;;;26.12;52.36;99228.38;4894516;29;20100;-92
2023/08/09 11:38:35;;;;;;;21.02;6.03;;;;;;;26.24;50.19;99263.44;4919924;29;20056;-91